Relevés horaires Beauvechain (Belgique)


Relevés horaires à Beauvechain - Jeudi 27 Juill. 2017
Heure UTC1 Température [°C] Vent [km/h] Hum. [%] Pres.4 [hPa] Visi. [Km] Nébu. [octa] Préc.5 [mm] Cond.
2m. Res. Ros. Dir.2 Vit. Moy. Raf.3
23:00 14.8 14.8 9.3 SO 5.6 -- 9.3 70 1010.2(1.1/3h) 20 -- -- --
22:00 15.6 15.6 8.7 OSO 5.6 -- 9.3 63 1010(1.6/3h) 20 -- -- --
21:00 16.6 16.6 8.4 OSO 5.6 -- 13.0 58 1009.6(1.5/3h) 20 -- -- --
20:00 17.7 17.7 7.7 OSO 5.6 -- 11.1 52 1008.8(1.3/3h) 20 -- -- --
19:00 18.8 18.8 7.6 O 7.4 -- 13.0 48 1008.2(0.7/3h) 20 -- -- --
18:00 19.7 19.7 9.0 O 9.3 -- 16.7 50 1007.7(0.1/3h) 20 -- -- --
17:00 21.6 21.6 9.9 O 5.6 -- 14.8 47 1007.2(-0.5/3h) 19 -- -- --
16:00 21.6 21.6 9.0 O 11.1 -- 16.7 44 1007.3(-0.6/3h) 20 4/8 -- --
15:00 21.6 21.6 8.6 OSO 7.4 -- 16.7 43 1007.5(-1.1/3h) 20 4/8 -- --
14:00 20.3 20.3 10.2 OSO 9.3 -- 14.8 52 1007.8(-0.9/3h) 20 7/8 -- --
13:00 20.0 20.0 10.5 SO 7.4 -- 14.8 54 1008.1(-1.0/3h) 20 7/8 -- --
12:00 19.6 19.6 11.2 OSO 9.3 -- 16.7 58 1008.7(-0.2/3h) 20 7/8 -- --
11:00 18.6 18.6 10.6 OSO 9.3 -- 16.7 60 1009(0.1/3h) 20 7/8 -- --
10:00 18.0 18.0 12.0 OSO 11.1 -- 13.0 68 1009.2(0.2/3h) 20 7/8 -- --
09:00 17.4 17.4 12.1 O 9.3 -- 14.8 71 1009.2(0.5/3h) 20 7/8 -- --
08:00 16.5 16.5 13.3 OSO 7.4 -- 14.8 81 1008.8(0.4/3h) 20 7/8 -- --
07:00 15.8 15.6 13.5 OSO 9.3 -- 14.8 86 1009.1(1.1/3h) 20 7/8 -- --
06:00 15.6 15.4 13.5 OSO 9.3 -- 18.5 87 1008.7(0.8/3h) 20 7/8 0.2/12h
--
05:00 15.7 15.7 14.5 OSO 7.4 -- 13.0 93 1008.3(0.5/3h) 20 7/8 -- --
04:00 16.0 16.0 14.8 SO 7.4 -- 13.0 93 1007.8(-0.4/3h) 20 6/8 -- --
03:00 17.0 17.0 15.5 OSO 9.3 -- 18.5 91 1007.7(-0.2/3h) 20 -- -- NA
02:00 17.9 17.9 16.8 SO 7.4 -- 11.1 93 1007.7(-0.8/3h) 20 -- -- --
01:00 17.8 17.8 16.9 SO 7.4 -- 13.0 94 1008.2(-0.8/3h) 19 -- -- --
00:00 17.6 17.6 16.9 SSO 5.6 -- 20.4 96 1008.1(-0.9/3h) 20 -- 0.2/6h
NA

1 Coordinated Universal Time. Actuellement il est 12:00 locale et 11:00 UTC.

2 Le vent souffle depuis la direction indiquée vers la direction oposée.

3 Les rafales max. sont disponible 40 min après l'heure du relevé.

4 Pour les stations d'altitude (plus de 600m) le géopotentiel du niveau le plus proche de la pression obligatoire est indiqué.

5 Les stations disposant d'un diffuseur peuvent indiquer "trace". Cela signifie que des précipitations ont touchés le sol mais que la quantité est inférieure à 0.1 mm.

Récapitulatif de la journée
Température [°C] Vent [km/h] Ensoleillement4 [h] Precipitations totale5 [mm] Pression [Hpa]
Min1 Max.2 Moy.3 Max. Min Max.
15.6 22.1 0 20.4 0 h 0 min 0 1007.2 1010.2

1 Température minimale relevée entre 18:00 UTC la veille et 18:00 UTC le jour donné.

2 Température maximale relevée entre 06:00 UTC le jour donné et 06:00 UTC le lendemain.

3 Vent moyen de la journée basé sur les relevés horaires.

4 Ensoleillement en heures relevé entre 06:00 UTC la veille et 06:00 UTC le jour donné.

5 Précipitations totales tombées entre 06:00 UTC la jour donné et 06:00 UTC le lendemain.

Graphiques horaires